sensor_id;sensor_type;location;lat;lon;timestamp;P1;durP1;ratioP1;P2;durP2;ratioP2
45236;SDS011;30973;51.442;3.580;2023-08-07T00:01:01;4.78;;;1.55;;
45236;SDS011;30973;51.442;3.580;2023-08-07T00:03:28;5.60;;;1.67;;
45236;SDS011;30973;51.442;3.580;2023-08-07T00:05:55;6.68;;;1.70;;
45236;SDS011;30973;51.442;3.580;2023-08-07T00:08:21;6.68;;;1.60;;
45236;SDS011;30973;51.442;3.580;2023-08-07T00:10:48;9.43;;;2.13;;
45236;SDS011;30973;51.442;3.580;2023-08-07T00:13:15;7.30;;;1.70;;
45236;SDS011;30973;51.442;3.580;2023-08-07T00:15:41;4.18;;;1.70;;
45236;SDS011;30973;51.442;3.580;2023-08-07T00:18:08;6.88;;;1.90;;
45236;SDS011;30973;51.442;3.580;2023-08-07T00:20:34;7.20;;;1.90;;
45236;SDS011;30973;51.442;3.580;2023-08-07T00:23:01;6.03;;;2.10;;
45236;SDS011;30973;51.442;3.580;2023-08-07T00:25:28;6.88;;;2.00;;
45236;SDS011;30973;51.442;3.580;2023-08-07T00:27:54;4.13;;;1.40;;
45236;SDS011;30973;51.442;3.580;2023-08-07T00:30:21;6.28;;;1.70;;
45236;SDS011;30973;51.442;3.580;2023-08-07T00:32:48;6.72;;;1.63;;
45236;SDS011;30973;51.442;3.580;2023-08-07T00:35:14;7.25;;;1.95;;
45236;SDS011;30973;51.442;3.580;2023-08-07T00:37:41;8.05;;;2.00;;
45236;SDS011;30973;51.442;3.580;2023-08-07T00:40:08;6.65;;;1.65;;
45236;SDS011;30973;51.442;3.580;2023-08-07T00:42:36;5.97;;;1.70;;
45236;SDS011;30973;51.442;3.580;2023-08-07T00:45:02;4.68;;;1.60;;
45236;SDS011;30973;51.442;3.580;2023-08-07T00:47:29;3.70;;;1.67;;
45236;SDS011;30973;51.442;3.580;2023-08-07T00:49:57;5.85;;;1.50;;
45236;SDS011;30973;51.442;3.580;2023-08-07T00:52:25;6.75;;;2.15;;
45236;SDS011;30973;51.442;3.580;2023-08-07T00:54:51;4.57;;;1.63;;
45236;SDS011;30973;51.442;3.580;2023-08-07T00:57:18;5.43;;;1.77;;
45236;SDS011;30973;51.442;3.580;2023-08-07T00:59:50;6.43;;;2.15;;
45236;SDS011;30973;51.442;3.580;2023-08-07T01:02:17;4.30;;;1.50;;
45236;SDS011;30973;51.442;3.580;2023-08-07T01:04:45;5.78;;;2.15;;
45236;SDS011;30973;51.442;3.580;2023-08-07T01:07:12;6.65;;;1.83;;
45236;SDS011;30973;51.442;3.580;2023-08-07T01:09:39;6.15;;;1.70;;
45236;SDS011;30973;51.442;3.580;2023-08-07T01:12:11;6.38;;;1.67;;
45236;SDS011;30973;51.442;3.580;2023-08-07T01:14:44;7.38;;;2.08;;
45236;SDS011;30973;51.442;3.580;2023-08-07T01:17:17;5.80;;;1.90;;
45236;SDS011;30973;51.442;3.580;2023-08-07T01:19:47;6.70;;;1.90;;
45236;SDS011;30973;51.442;3.580;2023-08-07T01:22:14;6.95;;;2.13;;
45236;SDS011;30973;51.442;3.580;2023-08-07T01:24:43;7.40;;;1.67;;
45236;SDS011;30973;51.442;3.580;2023-08-07T01:32:31;5.70;;;1.67;;
45236;SDS011;30973;51.442;3.580;2023-08-07T01:35:03;5.25;;;1.70;;
45236;SDS011;30973;51.442;3.580;2023-08-07T01:37:33;5.97;;;1.88;;
45236;SDS011;30973;51.442;3.580;2023-08-07T01:40:00;6.72;;;1.55;;
45236;SDS011;30973;51.442;3.580;2023-08-07T01:42:30;8.50;;;2.33;;
45236;SDS011;30973;51.442;3.580;2023-08-07T01:44:58;3.40;;;1.55;;
45236;SDS011;30973;51.442;3.580;2023-08-07T01:47:25;7.78;;;1.85;;
45236;SDS011;30973;51.442;3.580;2023-08-07T01:49:52;7.43;;;1.90;;
45236;SDS011;30973;51.442;3.580;2023-08-07T01:52:19;6.75;;;1.85;;
45236;SDS011;30973;51.442;3.580;2023-08-07T01:54:46;6.65;;;1.95;;
45236;SDS011;30973;51.442;3.580;2023-08-07T01:57:13;8.60;;;2.55;;
45236;SDS011;30973;51.442;3.580;2023-08-07T01:59:40;4.20;;;1.92;;
45236;SDS011;30973;51.442;3.580;2023-08-07T02:02:07;8.73;;;2.17;;
45236;SDS011;30973;51.442;3.580;2023-08-07T02:04:33;6.82;;;1.70;;
45236;SDS011;30973;51.442;3.580;2023-08-07T02:07:00;5.50;;;1.75;;
45236;SDS011;30973;51.442;3.580;2023-08-07T02:09:27;5.28;;;1.90;;
45236;SDS011;30973;51.442;3.580;2023-08-07T02:11:54;5.00;;;1.83;;
45236;SDS011;30973;51.442;3.580;2023-08-07T02:14:21;6.60;;;2.22;;
45236;SDS011;30973;51.442;3.580;2023-08-07T02:16:47;5.53;;;1.67;;
45236;SDS011;30973;51.442;3.580;2023-08-07T02:19:14;5.93;;;2.08;;
45236;SDS011;30973;51.442;3.580;2023-08-07T02:21:41;3.30;;;1.67;;
45236;SDS011;30973;51.442;3.580;2023-08-07T02:24:07;5.50;;;1.92;;
45236;SDS011;30973;51.442;3.580;2023-08-07T02:26:34;6.63;;;1.77;;
45236;SDS011;30973;51.442;3.580;2023-08-07T02:29:00;7.00;;;1.80;;
45236;SDS011;30973;51.442;3.580;2023-08-07T02:31:31;8.00;;;2.08;;
45236;SDS011;30973;51.442;3.580;2023-08-07T02:33:57;4.45;;;2.10;;
45236;SDS011;30973;51.442;3.580;2023-08-07T02:36:24;5.75;;;1.90;;
45236;SDS011;30973;51.442;3.580;2023-08-07T02:38:51;5.50;;;2.10;;
45236;SDS011;30973;51.442;3.580;2023-08-07T02:41:19;10.40;;;1.88;;
45236;SDS011;30973;51.442;3.580;2023-08-07T02:43:46;7.20;;;2.13;;
45236;SDS011;30973;51.442;3.580;2023-08-07T02:46:12;6.28;;;1.73;;
45236;SDS011;30973;51.442;3.580;2023-08-07T02:48:39;6.00;;;1.65;;
45236;SDS011;30973;51.442;3.580;2023-08-07T02:51:07;5.18;;;1.88;;
45236;SDS011;30973;51.442;3.580;2023-08-07T02:53:34;4.75;;;1.80;;
45236;SDS011;30973;51.442;3.580;2023-08-07T02:56:01;7.65;;;2.05;;
45236;SDS011;30973;51.442;3.580;2023-08-07T02:58:27;6.72;;;2.00;;
45236;SDS011;30973;51.442;3.580;2023-08-07T03:00:54;8.68;;;2.78;;
45236;SDS011;30973;51.442;3.580;2023-08-07T03:03:21;7.60;;;2.50;;
45236;SDS011;30973;51.442;3.580;2023-08-07T03:05:49;11.02;;;2.72;;
45236;SDS011;30973;51.442;3.580;2023-08-07T03:08:16;6.00;;;2.13;;
45236;SDS011;30973;51.442;3.580;2023-08-07T03:10:52;6.25;;;2.20;;
45236;SDS011;30973;51.442;3.580;2023-08-07T03:13:22;4.63;;;1.90;;
45236;SDS011;30973;51.442;3.580;2023-08-07T03:15:49;8.02;;;1.83;;
45236;SDS011;30973;51.442;3.580;2023-08-07T03:18:17;5.13;;;1.83;;
45236;SDS011;30973;51.442;3.580;2023-08-07T03:20:44;6.82;;;2.38;;
45236;SDS011;30973;51.442;3.580;2023-08-07T03:23:10;4.88;;;2.00;;
45236;SDS011;30973;51.442;3.580;2023-08-07T03:25:37;7.45;;;2.10;;
45236;SDS011;30973;51.442;3.580;2023-08-07T03:28:04;9.43;;;2.30;;
45236;SDS011;30973;51.442;3.580;2023-08-07T03:30:31;5.88;;;1.95;;
45236;SDS011;30973;51.442;3.580;2023-08-07T03:32:58;4.20;;;1.90;;
45236;SDS011;30973;51.442;3.580;2023-08-07T03:35:25;8.13;;;1.88;;
45236;SDS011;30973;51.442;3.580;2023-08-07T03:37:51;8.82;;;2.30;;
45236;SDS011;30973;51.442;3.580;2023-08-07T03:40:18;5.03;;;2.15;;
45236;SDS011;30973;51.442;3.580;2023-08-07T03:42:44;5.72;;;2.30;;
45236;SDS011;30973;51.442;3.580;2023-08-07T03:45:11;5.95;;;2.22;;
45236;SDS011;30973;51.442;3.580;2023-08-07T03:47:38;10.40;;;2.22;;
45236;SDS011;30973;51.442;3.580;2023-08-07T03:50:05;6.82;;;2.17;;
45236;SDS011;30973;51.442;3.580;2023-08-07T03:52:33;5.25;;;2.25;;
45236;SDS011;30973;51.442;3.580;2023-08-07T03:55:00;7.55;;;2.05;;
45236;SDS011;30973;51.442;3.580;2023-08-07T03:57:26;4.38;;;2.00;;
45236;SDS011;30973;51.442;3.580;2023-08-07T03:59:53;4.85;;;2.05;;
45236;SDS011;30973;51.442;3.580;2023-08-07T04:02:21;7.47;;;2.15;;
45236;SDS011;30973;51.442;3.580;2023-08-07T04:04:47;7.20;;;2.08;;
45236;SDS011;30973;51.442;3.580;2023-08-07T04:07:14;7.63;;;1.75;;
45236;SDS011;30973;51.442;3.580;2023-08-07T04:09:41;5.63;;;1.85;;
45236;SDS011;30973;51.442;3.580;2023-08-07T04:12:08;5.22;;;2.15;;
45236;SDS011;30973;51.442;3.580;2023-08-07T04:14:35;5.18;;;2.00;;
45236;SDS011;30973;51.442;3.580;2023-08-07T04:17:02;5.45;;;2.20;;
45236;SDS011;30973;51.442;3.580;2023-08-07T04:19:29;7.18;;;1.85;;
45236;SDS011;30973;51.442;3.580;2023-08-07T04:21:59;5.05;;;1.92;;
45236;SDS011;30973;51.442;3.580;2023-08-07T04:24:25;6.05;;;1.63;;
45236;SDS011;30973;51.442;3.580;2023-08-07T04:26:52;5.20;;;2.00;;
45236;SDS011;30973;51.442;3.580;2023-08-07T04:29:20;6.75;;;2.10;;
45236;SDS011;30973;51.442;3.580;2023-08-07T04:31:47;4.45;;;1.80;;
45236;SDS011;30973;51.442;3.580;2023-08-07T04:34:13;6.13;;;1.98;;
45236;SDS011;30973;51.442;3.580;2023-08-07T04:36:40;5.32;;;1.92;;
45236;SDS011;30973;51.442;3.580;2023-08-07T04:39:07;7.55;;;2.30;;
45236;SDS011;30973;51.442;3.580;2023-08-07T04:41:33;8.02;;;2.05;;
45236;SDS011;30973;51.442;3.580;2023-08-07T04:44:00;6.28;;;2.38;;
45236;SDS011;30973;51.442;3.580;2023-08-07T04:46:27;5.10;;;1.83;;
45236;SDS011;30973;51.442;3.580;2023-08-07T04:48:53;7.18;;;2.50;;
45236;SDS011;30973;51.442;3.580;2023-08-07T04:51:20;5.10;;;2.05;;
45236;SDS011;30973;51.442;3.580;2023-08-07T04:53:47;5.93;;;2.00;;
45236;SDS011;30973;51.442;3.580;2023-08-07T04:56:17;6.82;;;2.20;;
45236;SDS011;30973;51.442;3.580;2023-08-07T04:58:43;5.68;;;1.92;;
45236;SDS011;30973;51.442;3.580;2023-08-07T05:01:10;6.13;;;2.10;;
45236;SDS011;30973;51.442;3.580;2023-08-07T05:03:38;6.60;;;2.00;;
45236;SDS011;30973;51.442;3.580;2023-08-07T05:06:05;5.25;;;2.10;;
45236;SDS011;30973;51.442;3.580;2023-08-07T05:08:35;5.38;;;2.00;;
45236;SDS011;30973;51.442;3.580;2023-08-07T05:11:02;5.05;;;1.80;;
45236;SDS011;30973;51.442;3.580;2023-08-07T05:13:28;8.07;;;2.20;;
45236;SDS011;30973;51.442;3.580;2023-08-07T05:15:55;5.90;;;1.85;;
45236;SDS011;30973;51.442;3.580;2023-08-07T05:18:22;6.90;;;2.25;;
45236;SDS011;30973;51.442;3.580;2023-08-07T05:20:48;3.33;;;1.90;;
45236;SDS011;30973;51.442;3.580;2023-08-07T05:23:15;5.95;;;2.03;;
45236;SDS011;30973;51.442;3.580;2023-08-07T05:25:44;6.22;;;2.28;;
45236;SDS011;30973;51.442;3.580;2023-08-07T05:28:12;4.30;;;1.80;;
45236;SDS011;30973;51.442;3.580;2023-08-07T05:30:38;6.82;;;2.10;;
45236;SDS011;30973;51.442;3.580;2023-08-07T05:33:07;5.60;;;2.00;;
45236;SDS011;30973;51.442;3.580;2023-08-07T05:35:34;4.88;;;1.80;;
45236;SDS011;30973;51.442;3.580;2023-08-07T05:38:01;5.10;;;1.67;;
45236;SDS011;30973;51.442;3.580;2023-08-07T05:40:28;3.83;;;1.77;;
45236;SDS011;30973;51.442;3.580;2023-08-07T05:42:56;8.13;;;2.17;;
45236;SDS011;30973;51.442;3.580;2023-08-07T05:45:22;6.45;;;2.00;;
45236;SDS011;30973;51.442;3.580;2023-08-07T05:47:49;6.43;;;1.88;;
45236;SDS011;30973;51.442;3.580;2023-08-07T05:50:16;5.88;;;1.83;;
45236;SDS011;30973;51.442;3.580;2023-08-07T05:52:42;6.65;;;2.05;;
45236;SDS011;30973;51.442;3.580;2023-08-07T05:55:09;6.28;;;1.70;;
45236;SDS011;30973;51.442;3.580;2023-08-07T05:57:35;4.43;;;1.73;;
45236;SDS011;30973;51.442;3.580;2023-08-07T06:00:02;5.60;;;1.90;;
45236;SDS011;30973;51.442;3.580;2023-08-07T06:02:37;6.40;;;2.33;;
45236;SDS011;30973;51.442;3.580;2023-08-07T06:05:04;5.40;;;2.03;;
45236;SDS011;30973;51.442;3.580;2023-08-07T06:07:31;8.68;;;2.58;;
45236;SDS011;30973;51.442;3.580;2023-08-07T06:09:57;5.40;;;2.08;;
45236;SDS011;30973;51.442;3.580;2023-08-07T06:12:24;7.07;;;2.17;;
45236;SDS011;30973;51.442;3.580;2023-08-07T06:14:51;5.93;;;2.00;;
45236;SDS011;30973;51.442;3.580;2023-08-07T06:17:18;5.47;;;1.98;;
45236;SDS011;30973;51.442;3.580;2023-08-07T06:19:44;8.07;;;1.98;;
45236;SDS011;30973;51.442;3.580;2023-08-07T06:22:11;4.95;;;1.73;;
45236;SDS011;30973;51.442;3.580;2023-08-07T06:24:38;4.88;;;1.83;;
45236;SDS011;30973;51.442;3.580;2023-08-07T06:27:05;5.30;;;1.83;;
45236;SDS011;30973;51.442;3.580;2023-08-07T06:29:32;5.70;;;1.88;;
45236;SDS011;30973;51.442;3.580;2023-08-07T06:31:58;5.00;;;2.10;;
45236;SDS011;30973;51.442;3.580;2023-08-07T06:34:25;4.35;;;1.77;;
45236;SDS011;30973;51.442;3.580;2023-08-07T06:36:52;4.38;;;1.80;;
45236;SDS011;30973;51.442;3.580;2023-08-07T06:39:19;4.38;;;1.80;;
45236;SDS011;30973;51.442;3.580;2023-08-07T06:41:45;4.93;;;1.70;;
45236;SDS011;30973;51.442;3.580;2023-08-07T06:44:14;6.63;;;1.95;;
45236;SDS011;30973;51.442;3.580;2023-08-07T06:46:40;3.70;;;1.80;;
45236;SDS011;30973;51.442;3.580;2023-08-07T06:49:09;6.57;;;1.83;;
45236;SDS011;30973;51.442;3.580;2023-08-07T06:51:36;6.38;;;1.90;;
45236;SDS011;30973;51.442;3.580;2023-08-07T06:54:03;4.50;;;1.98;;
45236;SDS011;30973;51.442;3.580;2023-08-07T06:56:30;7.30;;;1.95;;
45236;SDS011;30973;51.442;3.580;2023-08-07T06:58:57;4.80;;;1.70;;
45236;SDS011;30973;51.442;3.580;2023-08-07T07:01:23;3.97;;;1.70;;
45236;SDS011;30973;51.442;3.580;2023-08-07T07:03:50;4.25;;;1.83;;
45236;SDS011;30973;51.442;3.580;2023-08-07T07:06:19;4.80;;;1.40;;
45236;SDS011;30973;51.442;3.580;2023-08-07T07:08:47;3.80;;;1.77;;
45236;SDS011;30973;51.442;3.580;2023-08-07T07:11:14;6.50;;;1.80;;
45236;SDS011;30973;51.442;3.580;2023-08-07T07:13:41;6.68;;;1.95;;
45236;SDS011;30973;51.442;3.580;2023-08-07T07:16:08;5.60;;;1.70;;
45236;SDS011;30973;51.442;3.580;2023-08-07T07:18:37;5.60;;;1.63;;
45236;SDS011;30973;51.442;3.580;2023-08-07T07:21:04;3.50;;;1.55;;
45236;SDS011;30973;51.442;3.580;2023-08-07T07:23:31;5.10;;;1.77;;
45236;SDS011;30973;51.442;3.580;2023-08-07T07:25:57;3.63;;;1.70;;
45236;SDS011;30973;51.442;3.580;2023-08-07T07:28:24;4.32;;;1.63;;
45236;SDS011;30973;51.442;3.580;2023-08-07T07:30:50;5.80;;;1.80;;
45236;SDS011;30973;51.442;3.580;2023-08-07T07:33:17;2.97;;;1.50;;
45236;SDS011;30973;51.442;3.580;2023-08-07T07:35:44;4.97;;;1.67;;
45236;SDS011;30973;51.442;3.580;2023-08-07T07:38:11;4.30;;;1.60;;
45236;SDS011;30973;51.442;3.580;2023-08-07T07:40:38;5.63;;;1.63;;
45236;SDS011;30973;51.442;3.580;2023-08-07T07:43:04;4.57;;;1.63;;
45236;SDS011;30973;51.442;3.580;2023-08-07T07:45:31;3.55;;;1.70;;
45236;SDS011;30973;51.442;3.580;2023-08-07T07:48:00;4.35;;;1.60;;
45236;SDS011;30973;51.442;3.580;2023-08-07T07:50:27;5.25;;;1.83;;
45236;SDS011;30973;51.442;3.580;2023-08-07T07:52:54;2.00;;;1.33;;
45236;SDS011;30973;51.442;3.580;2023-08-07T07:55:21;2.67;;;1.45;;
45236;SDS011;30973;51.442;3.580;2023-08-07T07:57:47;3.17;;;1.70;;
45236;SDS011;30973;51.442;3.580;2023-08-07T08:00:14;2.88;;;1.60;;
45236;SDS011;30973;51.442;3.580;2023-08-07T08:02:41;5.47;;;1.70;;
45236;SDS011;30973;51.442;3.580;2023-08-07T08:05:10;5.30;;;1.85;;
45236;SDS011;30973;51.442;3.580;2023-08-07T08:07:39;3.47;;;1.80;;
45236;SDS011;30973;51.442;3.580;2023-08-07T08:10:08;4.30;;;1.67;;
45236;SDS011;30973;51.442;3.580;2023-08-07T08:12:35;5.22;;;1.42;;
45236;SDS011;30973;51.442;3.580;2023-08-07T08:15:02;4.90;;;1.60;;
45236;SDS011;30973;51.442;3.580;2023-08-07T08:17:29;6.35;;;1.98;;
45236;SDS011;30973;51.442;3.580;2023-08-07T08:19:57;4.70;;;1.50;;
45236;SDS011;30973;51.442;3.580;2023-08-07T08:22:24;4.15;;;1.48;;
45236;SDS011;30973;51.442;3.580;2023-08-07T08:24:51;4.07;;;1.77;;
45236;SDS011;30973;51.442;3.580;2023-08-07T08:27:18;4.53;;;1.60;;
45236;SDS011;30973;51.442;3.580;2023-08-07T08:29:44;3.38;;;1.40;;
45236;SDS011;30973;51.442;3.580;2023-08-07T08:32:12;4.78;;;1.50;;
45236;SDS011;30973;51.442;3.580;2023-08-07T08:34:39;4.45;;;1.60;;
45236;SDS011;30973;51.442;3.580;2023-08-07T08:37:05;3.65;;;1.58;;
45236;SDS011;30973;51.442;3.580;2023-08-07T08:39:32;2.88;;;1.20;;
45236;SDS011;30973;51.442;3.580;2023-08-07T08:41:59;3.50;;;1.23;;
45236;SDS011;30973;51.442;3.580;2023-08-07T08:44:26;3.83;;;1.40;;
45236;SDS011;30973;51.442;3.580;2023-08-07T08:46:54;4.72;;;2.00;;
45236;SDS011;30973;51.442;3.580;2023-08-07T08:49:26;4.00;;;1.70;;
45236;SDS011;30973;51.442;3.580;2023-08-07T08:51:54;4.30;;;1.85;;
45236;SDS011;30973;51.442;3.580;2023-08-07T08:54:21;3.22;;;1.50;;
45236;SDS011;30973;51.442;3.580;2023-08-07T08:56:48;4.10;;;1.70;;
45236;SDS011;30973;51.442;3.580;2023-08-07T08:59:15;2.00;;;1.40;;
45236;SDS011;30973;51.442;3.580;2023-08-07T09:01:45;2.25;;;1.30;;
45236;SDS011;30973;51.442;3.580;2023-08-07T09:04:12;3.55;;;1.30;;
45236;SDS011;30973;51.442;3.580;2023-08-07T09:06:40;3.33;;;1.50;;
45236;SDS011;30973;51.442;3.580;2023-08-07T09:09:10;3.85;;;1.55;;
45236;SDS011;30973;51.442;3.580;2023-08-07T09:11:39;3.53;;;1.60;;
45236;SDS011;30973;51.442;3.580;2023-08-07T09:14:06;3.10;;;1.73;;
45236;SDS011;30973;51.442;3.580;2023-08-07T09:16:35;4.30;;;1.58;;
45236;SDS011;30973;51.442;3.580;2023-08-07T09:19:02;3.10;;;1.48;;
45236;SDS011;30973;51.442;3.580;2023-08-07T09:21:31;2.92;;;1.52;;
45236;SDS011;30973;51.442;3.580;2023-08-07T09:23:58;4.55;;;1.60;;
45236;SDS011;30973;51.442;3.580;2023-08-07T09:26:24;2.83;;;1.40;;
45236;SDS011;30973;51.442;3.580;2023-08-07T09:28:52;3.83;;;1.30;;
45236;SDS011;30973;51.442;3.580;2023-08-07T09:31:21;6.97;;;1.75;;
45236;SDS011;30973;51.442;3.580;2023-08-07T09:33:48;4.95;;;1.60;;
45236;SDS011;30973;51.442;3.580;2023-08-07T09:36:15;2.95;;;1.70;;
45236;SDS011;30973;51.442;3.580;2023-08-07T09:38:44;5.60;;;1.92;;
45236;SDS011;30973;51.442;3.580;2023-08-07T09:41:18;4.75;;;1.70;;
45236;SDS011;30973;51.442;3.580;2023-08-07T09:43:48;4.18;;;1.55;;
45236;SDS011;30973;51.442;3.580;2023-08-07T09:46:15;3.88;;;1.50;;
45236;SDS011;30973;51.442;3.580;2023-08-07T09:48:44;3.80;;;1.70;;
45236;SDS011;30973;51.442;3.580;2023-08-07T09:51:10;5.70;;;2.08;;
45236;SDS011;30973;51.442;3.580;2023-08-07T09:53:38;3.35;;;1.52;;
45236;SDS011;30973;51.442;3.580;2023-08-07T09:56:04;4.70;;;1.92;;
45236;SDS011;30973;51.442;3.580;2023-08-07T09:58:35;6.25;;;1.42;;
45236;SDS011;30973;51.442;3.580;2023-08-07T10:01:05;4.45;;;1.67;;
45236;SDS011;30973;51.442;3.580;2023-08-07T10:03:32;2.78;;;1.52;;
45236;SDS011;30973;51.442;3.580;2023-08-07T10:05:59;3.53;;;1.50;;
45236;SDS011;30973;51.442;3.580;2023-08-07T10:08:26;2.97;;;1.30;;
45236;SDS011;30973;51.442;3.580;2023-08-07T10:10:53;2.60;;;1.48;;
45236;SDS011;30973;51.442;3.580;2023-08-07T10:13:23;3.92;;;1.85;;
45236;SDS011;30973;51.442;3.580;2023-08-07T10:16:06;4.20;;;1.50;;
45236;SDS011;30973;51.442;3.580;2023-08-07T10:18:36;4.03;;;1.60;;
45236;SDS011;30973;51.442;3.580;2023-08-07T10:21:03;4.93;;;1.90;;
45236;SDS011;30973;51.442;3.580;2023-08-07T10:23:30;5.47;;;1.60;;
45236;SDS011;30973;51.442;3.580;2023-08-07T10:25:58;3.60;;;1.55;;
45236;SDS011;30973;51.442;3.580;2023-08-07T10:28:25;6.07;;;1.80;;
45236;SDS011;30973;51.442;3.580;2023-08-07T10:30:55;3.55;;;1.77;;
45236;SDS011;30973;51.442;3.580;2023-08-07T10:33:22;6.03;;;1.40;;
45236;SDS011;30973;51.442;3.580;2023-08-07T10:35:51;5.78;;;2.00;;
45236;SDS011;30973;51.442;3.580;2023-08-07T10:38:19;4.75;;;2.03;;
45236;SDS011;30973;51.442;3.580;2023-08-07T10:43:46;5.45;;;2.17;;
45236;SDS011;30973;51.442;3.580;2023-08-07T10:46:15;4.53;;;2.00;;
45236;SDS011;30973;51.442;3.580;2023-08-07T10:48:43;4.35;;;1.90;;
45236;SDS011;30973;51.442;3.580;2023-08-07T10:51:13;3.70;;;1.95;;
45236;SDS011;30973;51.442;3.580;2023-08-07T10:53:44;4.28;;;2.00;;
45236;SDS011;30973;51.442;3.580;2023-08-07T10:56:18;3.55;;;2.05;;
45236;SDS011;30973;51.442;3.580;2023-08-07T10:58:51;4.32;;;2.10;;
45236;SDS011;30973;51.442;3.580;2023-08-07T11:01:40;3.10;;;1.77;;
45236;SDS011;30973;51.442;3.580;2023-08-07T11:04:14;5.95;;;1.98;;
45236;SDS011;30973;51.442;3.580;2023-08-07T11:06:41;4.07;;;2.25;;
45236;SDS011;30973;51.442;3.580;2023-08-07T11:09:08;3.90;;;2.38;;
45236;SDS011;30973;51.442;3.580;2023-08-07T11:11:36;3.83;;;2.20;;
45236;SDS011;30973;51.442;3.580;2023-08-07T11:14:08;5.47;;;2.50;;
45236;SDS011;30973;51.442;3.580;2023-08-07T11:16:35;5.07;;;2.47;;
45236;SDS011;30973;51.442;3.580;2023-08-07T11:19:02;4.45;;;2.30;;
45236;SDS011;30973;51.442;3.580;2023-08-07T11:21:32;5.63;;;2.20;;
45236;SDS011;30973;51.442;3.580;2023-08-07T11:24:00;3.85;;;1.58;;
45236;SDS011;30973;51.442;3.580;2023-08-07T11:26:27;3.90;;;1.58;;
45236;SDS011;30973;51.442;3.580;2023-08-07T11:28:55;6.65;;;1.80;;
45236;SDS011;30973;51.442;3.580;2023-08-07T11:31:22;3.53;;;1.70;;
45236;SDS011;30973;51.442;3.580;2023-08-07T11:33:51;3.72;;;1.58;;
45236;SDS011;30973;51.442;3.580;2023-08-07T11:36:18;3.33;;;1.65;;
45236;SDS011;30973;51.442;3.580;2023-08-07T11:38:45;2.35;;;1.42;;
45236;SDS011;30973;51.442;3.580;2023-08-07T11:41:12;4.38;;;1.52;;
45236;SDS011;30973;51.442;3.580;2023-08-07T11:43:39;4.45;;;1.45;;
45236;SDS011;30973;51.442;3.580;2023-08-07T11:46:07;2.63;;;1.33;;
45236;SDS011;30973;51.442;3.580;2023-08-07T11:48:35;1.88;;;1.30;;
45236;SDS011;30973;51.442;3.580;2023-08-07T11:51:02;3.05;;;1.38;;
45236;SDS011;30973;51.442;3.580;2023-08-07T11:53:30;6.20;;;1.65;;
45236;SDS011;30973;51.442;3.580;2023-08-07T11:55:58;2.65;;;1.25;;
45236;SDS011;30973;51.442;3.580;2023-08-07T11:58:26;3.75;;;1.50;;
45236;SDS011;30973;51.442;3.580;2023-08-07T12:00:53;3.33;;;1.30;;
45236;SDS011;30973;51.442;3.580;2023-08-07T12:03:31;2.83;;;1.10;;
45236;SDS011;30973;51.442;3.580;2023-08-07T12:06:01;4.50;;;1.40;;
45236;SDS011;30973;51.442;3.580;2023-08-07T12:08:48;2.78;;;1.42;;
45236;SDS011;30973;51.442;3.580;2023-08-07T12:11:15;4.07;;;1.38;;
45236;SDS011;30973;51.442;3.580;2023-08-07T12:13:42;4.80;;;1.35;;
45236;SDS011;30973;51.442;3.580;2023-08-07T12:16:09;2.55;;;1.17;;
45236;SDS011;30973;51.442;3.580;2023-08-07T12:18:37;3.53;;;1.35;;
45236;SDS011;30973;51.442;3.580;2023-08-07T12:21:06;3.53;;;1.40;;
45236;SDS011;30973;51.442;3.580;2023-08-07T12:23:34;4.50;;;1.73;;
45236;SDS011;30973;51.442;3.580;2023-08-07T12:26:01;2.97;;;1.70;;
45236;SDS011;30973;51.442;3.580;2023-08-07T12:28:28;3.95;;;1.45;;
45236;SDS011;30973;51.442;3.580;2023-08-07T12:30:56;4.43;;;1.30;;
45236;SDS011;30973;51.442;3.580;2023-08-07T12:33:23;5.03;;;1.50;;
45236;SDS011;30973;51.442;3.580;2023-08-07T12:35:49;2.92;;;1.23;;
45236;SDS011;30973;51.442;3.580;2023-08-07T12:38:16;5.53;;;1.30;;
45236;SDS011;30973;51.442;3.580;2023-08-07T12:40:44;3.70;;;1.20;;
45236;SDS011;30973;51.442;3.580;2023-08-07T12:43:10;4.00;;;1.25;;
45236;SDS011;30973;51.442;3.580;2023-08-07T12:45:37;4.28;;;1.40;;
45236;SDS011;30973;51.442;3.580;2023-08-07T12:48:07;3.60;;;1.30;;
45236;SDS011;30973;51.442;3.580;2023-08-07T12:50:35;3.35;;;1.00;;
45236;SDS011;30973;51.442;3.580;2023-08-07T12:53:02;2.80;;;1.25;;
45236;SDS011;30973;51.442;3.580;2023-08-07T12:55:29;3.20;;;1.30;;
45236;SDS011;30973;51.442;3.580;2023-08-07T12:57:57;3.75;;;1.15;;
45236;SDS011;30973;51.442;3.580;2023-08-07T13:00:24;3.53;;;1.23;;
45236;SDS011;30973;51.442;3.580;2023-08-07T13:02:52;3.80;;;1.30;;
45236;SDS011;30973;51.442;3.580;2023-08-07T13:05:20;3.83;;;1.08;;
45236;SDS011;30973;51.442;3.580;2023-08-07T13:07:47;2.70;;;1.30;;
45236;SDS011;30973;51.442;3.580;2023-08-07T13:10:14;4.50;;;1.35;;
45236;SDS011;30973;51.442;3.580;2023-08-07T13:12:41;4.40;;;1.50;;
45236;SDS011;30973;51.442;3.580;2023-08-07T13:15:10;2.90;;;1.20;;
45236;SDS011;30973;51.442;3.580;2023-08-07T13:17:39;4.75;;;1.55;;
45236;SDS011;30973;51.442;3.580;2023-08-07T13:20:06;3.22;;;1.13;;
45236;SDS011;30973;51.442;3.580;2023-08-07T13:22:37;4.93;;;1.40;;
45236;SDS011;30973;51.442;3.580;2023-08-07T13:25:04;4.63;;;1.20;;
45236;SDS011;30973;51.442;3.580;2023-08-07T13:27:31;4.78;;;1.23;;
45236;SDS011;30973;51.442;3.580;2023-08-07T13:29:58;2.83;;;1.42;;
45236;SDS011;30973;51.442;3.580;2023-08-07T13:32:25;2.00;;;1.00;;
45236;SDS011;30973;51.442;3.580;2023-08-07T13:34:52;5.97;;;2.03;;
45236;SDS011;30973;51.442;3.580;2023-08-07T13:37:19;3.38;;;1.30;;
45236;SDS011;30973;51.442;3.580;2023-08-07T13:39:46;4.85;;;1.38;;
45236;SDS011;30973;51.442;3.580;2023-08-07T13:42:15;3.42;;;1.27;;
45236;SDS011;30973;51.442;3.580;2023-08-07T13:44:41;2.60;;;1.20;;
45236;SDS011;30973;51.442;3.580;2023-08-07T13:47:09;4.60;;;1.60;;
45236;SDS011;30973;51.442;3.580;2023-08-07T13:49:37;2.35;;;1.35;;
45236;SDS011;30973;51.442;3.580;2023-08-07T13:52:03;3.13;;;1.20;;
45236;SDS011;30973;51.442;3.580;2023-08-07T13:54:30;4.72;;;1.88;;
45236;SDS011;30973;51.442;3.580;2023-08-07T13:56:57;3.67;;;1.60;;
45236;SDS011;30973;51.442;3.580;2023-08-07T13:59:24;3.08;;;1.30;;
45236;SDS011;30973;51.442;3.580;2023-08-07T14:01:50;4.43;;;1.50;;
45236;SDS011;30973;51.442;3.580;2023-08-07T14:04:18;3.90;;;1.35;;
45236;SDS011;30973;51.442;3.580;2023-08-07T14:06:47;5.07;;;1.35;;
45236;SDS011;30973;51.442;3.580;2023-08-07T14:09:14;5.50;;;1.40;;
45236;SDS011;30973;51.442;3.580;2023-08-07T14:11:40;2.92;;;1.42;;
45236;SDS011;30973;51.442;3.580;2023-08-07T14:14:07;7.35;;;1.77;;
45236;SDS011;30973;51.442;3.580;2023-08-07T14:16:34;3.40;;;1.35;;
45236;SDS011;30973;51.442;3.580;2023-08-07T14:19:03;3.42;;;1.35;;
45236;SDS011;30973;51.442;3.580;2023-08-07T14:21:29;3.92;;;1.60;;
45236;SDS011;30973;51.442;3.580;2023-08-07T14:23:56;2.45;;;1.38;;
45236;SDS011;30973;51.442;3.580;2023-08-07T14:26:23;3.40;;;1.20;;
45236;SDS011;30973;51.442;3.580;2023-08-07T14:28:50;4.40;;;1.27;;
45236;SDS011;30973;51.442;3.580;2023-08-07T14:31:17;3.80;;;1.48;;
45236;SDS011;30973;51.442;3.580;2023-08-07T14:33:44;2.83;;;1.20;;
45236;SDS011;30973;51.442;3.580;2023-08-07T14:36:11;3.42;;;1.40;;
45236;SDS011;30973;51.442;3.580;2023-08-07T14:38:37;4.55;;;1.60;;
45236;SDS011;30973;51.442;3.580;2023-08-07T14:41:04;3.78;;;1.30;;
45236;SDS011;30973;51.442;3.580;2023-08-07T14:43:31;4.63;;;1.60;;
45236;SDS011;30973;51.442;3.580;2023-08-07T14:45:58;4.20;;;1.63;;
45236;SDS011;30973;51.442;3.580;2023-08-07T14:48:24;4.30;;;1.17;;
45236;SDS011;30973;51.442;3.580;2023-08-07T14:50:51;3.40;;;1.45;;
45236;SDS011;30973;51.442;3.580;2023-08-07T14:53:18;3.08;;;1.42;;
45236;SDS011;30973;51.442;3.580;2023-08-07T14:55:45;3.55;;;1.30;;
45236;SDS011;30973;51.442;3.580;2023-08-07T14:58:12;4.07;;;1.67;;